Time;durP1;ratioP1;P1;durP2;ratioP2;P2;SDS_P1;SDS_P2;PMS_P1;PMS_P2;Temp;Humidity;BMP_temperature;BMP_pressure;BME280_temperature;BME280_humidity;BME280_pressure;Samples;Min_cycle;Max_cycle;Signal;HPM_P1;HPM_P2
2023/01/25 00:01:04;;;;;;;;;;;;;;;1.07;86.88;103103.93;106061;1291;73585;-70
2023/01/25 00:03:50;;;;;;;;;;;;;;;1.08;86.84;103101.08;106101;1290;67336;-70
2023/01/25 00:06:36;;;;;;;;;;;;;;;1.09;86.81;103096.90;106060;1289;70471;-70
2023/01/25 00:09:22;;;;;;;;;;;;;;;1.09;86.88;103106.77;106065;1290;58978;-70
2023/01/25 00:12:08;;;;;;;;;;;;;;;1.10;86.90;103111.40;106066;1290;58885;-70
2023/01/25 00:14:54;;;;;;;;;;;;;;;1.10;86.92;103110.91;106028;1289;73862;-70
2023/01/25 00:17:40;;;;;;;;;;;;;;;1.08;86.84;103116.07;106097;1289;69625;-69
2023/01/25 00:20:26;;;;;;;;;;;;;;;1.06;86.78;103116.76;106115;1289;71971;-69
2023/01/25 00:23:12;;;;;;;;;;;;;;;1.05;86.76;103116.67;106057;1289;59260;-70
2023/01/25 00:25:57;;;;;;;;;;;;;;;1.05;86.78;103117.05;106114;1288;59847;-70
2023/01/25 00:28:51;;;;;;;;;;;;;;;1.07;86.85;103116.11;106106;1290;73211;-70
2023/01/25 00:31:43;;;;;;;;;;;;;;;1.07;86.84;103112.05;106072;1289;67372;-70
2023/01/25 00:34:29;;;;;;;;;;;;;;;1.07;86.81;103113.23;106078;1290;73077;-70
2023/01/25 00:37:20;;;;;;;;;;;;;;;1.07;86.86;103113.09;106043;1289;58441;-70
2023/01/25 00:40:08;;;;;;;;;;;;;;;1.08;86.85;103113.98;106072;1290;60343;-70
2023/01/25 00:42:54;;;;;;;;;;;;;;;1.08;86.83;103108.08;106065;1291;75158;-70
2023/01/25 00:45:40;;;;;;;;;;;;;;;1.09;86.89;103105.04;106084;1290;67210;-70
2023/01/25 00:48:26;;;;;;;;;;;;;;;1.10;86.87;103099.84;106052;1290;71291;-70
2023/01/25 00:51:12;;;;;;;;;;;;;;;1.11;86.87;103097.70;106095;1290;59181;-70
2023/01/25 00:53:57;;;;;;;;;;;;;;;1.10;86.86;103098.51;106075;1289;59514;-70
2023/01/25 00:56:44;;;;;;;;;;;;;;;1.10;86.82;103097.00;106102;1290;74079;-70
2023/01/25 00:59:30;;;;;;;;;;;;;;;1.10;86.73;103096.47;106074;1290;68596;-70
2023/01/25 01:02:16;;;;;;;;;;;;;;;1.10;86.72;103092.52;106063;1291;72421;-70
2023/01/25 01:05:01;;;;;;;;;;;;;;;1.10;86.79;103092.20;105949;1291;58780;-70
2023/01/25 01:07:48;;;;;;;;;;;;;;;1.10;86.79;103093.91;105983;1289;59072;-70
2023/01/25 01:10:34;;;;;;;;;;;;;;;1.11;86.91;103090.60;106004;1290;73376;-70
2023/01/25 01:13:20;;;;;;;;;;;;;;;1.13;86.84;103087.98;106054;1291;67451;-70
2023/01/25 01:16:12;;;;;;;;;;;;;;;1.13;86.82;103087.30;106069;1291;72537;-70
2023/01/25 01:18:58;;;;;;;;;;;;;;;1.11;86.74;103086.98;106088;1289;59429;-70
2023/01/25 01:21:44;;;;;;;;;;;;;;;1.08;86.84;103090.92;106051;1289;59352;-70
2023/01/25 01:24:30;;;;;;;;;;;;;;;1.07;86.64;103084.71;106035;1290;74737;-70
2023/01/25 01:27:16;;;;;;;;;;;;;;;1.07;86.65;103084.87;106085;1290;68172;-70
2023/01/25 01:30:01;;;;;;;;;;;;;;;1.07;86.68;103087.06;106074;1291;73152;-70
2023/01/25 01:32:49;;;;;;;;;;;;;;;1.05;86.69;103086.49;106100;1289;59738;-70
2023/01/25 01:35:35;;;;;;;;;;;;;;;1.05;86.72;103082.70;106063;1290;61602;-70
2023/01/25 01:38:21;;;;;;;;;;;;;;;1.04;86.64;103079.29;106005;1291;74156;-70
2023/01/25 01:41:08;;;;;;;;;;;;;;;1.05;86.70;103075.08;106038;1290;67226;-70
2023/01/25 01:43:54;;;;;;;;;;;;;;;1.05;86.71;103073.73;106022;1291;71510;-70
2023/01/25 01:46:40;;;;;;;;;;;;;;;1.03;86.66;103068.71;106048;1291;59201;-70
2023/01/25 01:49:27;;;;;;;;;;;;;;;1.01;86.65;103065.70;106050;1290;58960;-70
2023/01/25 01:52:16;;;;;;;;;;;;;;;1.00;86.65;103061.58;106017;1290;74925;-70
2023/01/25 01:55:04;;;;;;;;;;;;;;;0.99;86.60;103054.55;106049;1290;67474;-70
2023/01/25 01:57:52;;;;;;;;;;;;;;;0.99;86.69;103055.71;106034;1291;73021;-70
2023/01/25 02:00:39;;;;;;;;;;;;;;;1.00;86.70;103049.86;106051;1290;59043;-70
2023/01/25 02:03:26;;;;;;;;;;;;;;;1.01;86.63;103048.70;106052;1291;58982;-70
2023/01/25 02:06:14;;;;;;;;;;;;;;;1.00;86.60;103037.95;106001;1291;73424;-70
2023/01/25 02:09:00;;;;;;;;;;;;;;;1.00;86.58;103039.48;106046;1290;67982;-70
2023/01/25 02:11:46;;;;;;;;;;;;;;;1.00;86.62;103040.99;106008;1291;71367;-70
2023/01/25 02:14:33;;;;;;;;;;;;;;;1.00;86.64;103034.54;106090;1291;59190;-70
2023/01/25 02:17:23;;;;;;;;;;;;;;;1.00;86.61;103030.47;106055;1291;58969;-70
2023/01/25 02:20:14;;;;;;;;;;;;;;;0.99;86.64;103032.83;106078;1290;73180;-70
2023/01/25 02:23:17;;;;;;;;;;;;;;;1.00;86.66;103037.44;106038;1290;67534;-69
2023/01/25 02:26:04;;;;;;;;;;;;;;;0.99;86.61;103040.27;105991;1290;72381;-70
2023/01/25 02:28:56;;;;;;;;;;;;;;;0.99;86.62;103046.25;106027;1293;59213;-70
2023/01/25 02:31:43;;;;;;;;;;;;;;;1.00;86.63;103041.34;105954;1291;61470;-70
2023/01/25 02:34:29;;;;;;;;;;;;;;;0.99;86.63;103042.16;105297;1290;74993;-69
2023/01/25 02:37:15;;;;;;;;;;;;;;;1.01;86.64;103034.92;104506;1291;68155;-69
2023/01/25 02:40:03;;;;;;;;;;;;;;;0.99;86.60;103029.60;104441;1293;73093;-69
2023/01/25 02:42:49;;;;;;;;;;;;;;;0.99;86.66;103024.64;104530;1290;61076;-69
2023/01/25 02:45:35;;;;;;;;;;;;;;;0.96;86.62;103017.69;104580;1290;60301;-69
2023/01/25 02:48:21;;;;;;;;;;;;;;;0.95;86.64;103010.15;104351;1291;262926;-69
2023/01/25 02:51:08;;;;;;;;;;;;;;;0.96;86.67;103004.41;97295;1290;10003227;-69
2023/01/25 02:53:54;;;;;;;;;;;;;;;0.96;86.73;102999.46;104543;1291;61142;-69
2023/01/25 02:56:40;;;;;;;;;;;;;;;0.95;86.70;102999.65;104444;1291;61155;-69
2023/01/25 02:59:26;;;;;;;;;;;;;;;0.96;86.61;102996.98;104518;1291;72888;-69
2023/01/25 03:02:13;;;;;;;;;;;;;;;0.95;86.64;102995.35;104678;1291;67254;-69
2023/01/25 03:04:59;;;;;;;;;;;;;;;0.93;86.72;102991.01;104587;1291;72122;-68
2023/01/25 03:07:45;;;;;;;;;;;;;;;0.89;86.58;102984.50;104637;1291;61292;-69
2023/01/25 03:10:31;;;;;;;;;;;;;;;0.86;86.55;102980.35;104623;1290;60930;-69
2023/01/25 03:13:17;;;;;;;;;;;;;;;0.82;86.58;102981.33;104684;1291;73218;-68
2023/01/25 03:16:08;;;;;;;;;;;;;;;0.77;86.50;102979.96;104651;1290;67748;-69
2023/01/25 03:18:55;;;;;;;;;;;;;;;0.72;86.51;102982.23;104681;1291;71349;-69
2023/01/25 03:21:41;;;;;;;;;;;;;;;0.69;86.50;102980.29;104485;1291;61385;-69
2023/01/25 03:24:27;;;;;;;;;;;;;;;0.64;86.41;102974.77;104646;1291;61772;-68
2023/01/25 03:27:15;;;;;;;;;;;;;;;0.61;86.50;102965.95;104644;1291;79004;-69
2023/01/25 03:30:02;;;;;;;;;;;;;;;0.61;86.49;102964.76;104630;1291;67547;-69
2023/01/25 03:32:49;;;;;;;;;;;;;;;0.60;86.57;102960.46;104593;1291;71334;-69
2023/01/25 03:35:35;;;;;;;;;;;;;;;0.59;86.57;102958.70;104630;1291;61170;-69
2023/01/25 03:38:22;;;;;;;;;;;;;;;0.59;86.52;102957.30;104650;1290;63602;-69
2023/01/25 03:41:08;;;;;;;;;;;;;;;0.58;86.55;102953.54;104610;1291;74188;-69
2023/01/25 03:43:55;;;;;;;;;;;;;;;0.58;86.58;102950.33;104687;1290;67268;-69
2023/01/25 03:46:41;;;;;;;;;;;;;;;0.59;86.61;102950.02;104675;1291;70255;-69
2023/01/25 03:49:27;;;;;;;;;;;;;;;0.59;86.60;102947.30;104671;1291;61497;-68
2023/01/25 03:52:13;;;;;;;;;;;;;;;0.57;86.56;102939.04;104640;1291;61275;-68
2023/01/25 03:54:59;;;;;;;;;;;;;;;0.57;86.55;102931.52;104661;1291;74681;-68
2023/01/25 03:57:47;;;;;;;;;;;;;;;0.56;86.55;102926.42;104666;1291;70064;-68
2023/01/25 04:00:34;;;;;;;;;;;;;;;0.55;86.50;102923.82;104623;1291;71199;-68
2023/01/25 04:03:20;;;;;;;;;;;;;;;0.56;86.59;102921.14;104607;1291;61132;-68
2023/01/25 04:06:06;;;;;;;;;;;;;;;0.56;86.58;102920.95;106017;1291;59015;-69
2023/01/25 04:08:52;;;;;;;;;;;;;;;0.57;86.56;102920.02;105940;1291;73447;-69
2023/01/25 04:11:38;;;;;;;;;;;;;;;0.58;86.53;102914.63;106053;1290;67483;-69
2023/01/25 04:14:24;;;;;;;;;;;;;;;0.58;86.48;102910.23;106050;1291;71441;-69
2023/01/25 04:17:10;;;;;;;;;;;;;;;0.59;86.46;102903.51;106035;1291;59550;-69
2023/01/25 04:19:55;;;;;;;;;;;;;;;0.60;86.47;102901.38;106027;1290;59300;-69
2023/01/25 04:22:41;;;;;;;;;;;;;;;0.63;86.45;102897.13;105954;1291;75015;-69
2023/01/25 04:25:27;;;;;;;;;;;;;;;0.65;86.51;102896.59;105980;1291;68646;-69
2023/01/25 04:28:13;;;;;;;;;;;;;;;0.68;86.45;102891.67;105949;1290;72623;-69
2023/01/25 04:30:59;;;;;;;;;;;;;;;0.70;86.45;102882.61;106004;1291;59369;-70
2023/01/25 04:33:45;;;;;;;;;;;;;;;0.71;86.46;102876.06;105959;1293;59412;-69
2023/01/25 04:36:30;;;;;;;;;;;;;;;0.71;86.40;102876.71;105965;1290;74319;-69
2023/01/25 04:39:16;;;;;;;;;;;;;;;0.71;86.39;102877.25;105977;1291;67401;-69
2023/01/25 04:42:02;;;;;;;;;;;;;;;0.70;86.44;102878.38;105984;1291;71429;-69
2023/01/25 04:44:48;;;;;;;;;;;;;;;0.70;86.42;102877.52;105975;1291;59375;-69
2023/01/25 04:47:34;;;;;;;;;;;;;;;0.69;86.38;102874.41;105978;1291;59356;-70
2023/01/25 04:50:20;;;;;;;;;;;;;;;0.68;86.31;102870.77;105978;1291;73364;-70
2023/01/25 04:53:06;;;;;;;;;;;;;;;0.66;86.35;102865.59;105942;1291;66513;-70
2023/01/25 04:55:52;;;;;;;;;;;;;;;0.65;86.37;102862.13;105937;1291;72642;-70
2023/01/25 04:58:38;;;;;;;;;;;;;;;0.64;86.36;102859.87;105971;1290;58999;-70
2023/01/25 05:01:24;;;;;;;;;;;;;;;0.64;86.38;102854.26;105950;1291;59034;-69
2023/01/25 05:04:10;;;;;;;;;;;;;;;0.62;86.35;102858.92;105965;1290;73363;-70
2023/01/25 05:06:55;;;;;;;;;;;;;;;0.61;86.34;102859.84;105985;1291;67492;-70
2023/01/25 05:09:41;;;;;;;;;;;;;;;0.59;86.23;102863.65;105893;1291;72442;-70
2023/01/25 05:12:27;;;;;;;;;;;;;;;0.57;86.30;102861.00;105960;1290;59280;-70
2023/01/25 05:15:13;;;;;;;;;;;;;;;0.57;86.32;102859.78;106007;1293;59799;-70
2023/01/25 05:17:59;;;;;;;;;;;;;;;0.57;86.29;102855.01;105950;1290;72688;-70
2023/01/25 05:20:45;;;;;;;;;;;;;;;0.57;86.28;102854.81;105844;1291;67957;-70
2023/01/25 05:23:31;;;;;;;;;;;;;;;0.58;86.35;102851.89;105968;1290;72513;-70
2023/01/25 05:29:21;;;;;;;;;;;;;;;0.61;86.43;102847.14;105978;1290;60022;-70
2023/01/25 05:32:07;;;;;;;;;;;;;;;0.59;86.33;102854.30;105936;1291;74004;-70
2023/01/25 05:34:53;;;;;;;;;;;;;;;0.58;86.29;102858.63;105953;1290;67191;-70
2023/01/25 05:37:38;;;;;;;;;;;;;;;0.59;86.34;102852.75;105423;1291;509078;-69
2023/01/25 05:40:25;;;;;;;;;;;;;;;0.57;86.23;102849.77;105986;1293;59452;-70
2023/01/25 05:43:10;;;;;;;;;;;;;;;0.58;86.35;102854.57;106035;1291;60879;-70
2023/01/25 05:45:57;;;;;;;;;;;;;;;0.61;86.47;102856.80;105995;1291;74307;-70
2023/01/25 05:48:43;;;;;;;;;;;;;;;0.62;86.35;102851.91;105900;1291;68989;-70
2023/01/25 05:51:29;;;;;;;;;;;;;;;0.60;86.37;102852.69;105831;1293;70441;-69
2023/01/25 05:54:16;;;;;;;;;;;;;;;0.60;86.32;102857.77;105783;1291;59328;-70
2023/01/25 05:57:02;;;;;;;;;;;;;;;0.60;86.38;102848.92;105987;1290;59605;-70
2023/01/25 05:59:48;;;;;;;;;;;;;;;0.61;86.31;102848.31;105777;1291;74102;-70
2023/01/25 06:02:33;;;;;;;;;;;;;;;0.63;86.38;102847.42;105972;1290;67557;-70
2023/01/25 06:05:19;;;;;;;;;;;;;;;0.65;86.41;102844.98;105892;1291;71639;-70
2023/01/25 06:08:05;;;;;;;;;;;;;;;0.66;86.36;102842.16;105946;1290;59353;-70
2023/01/25 06:10:51;;;;;;;;;;;;;;;0.67;86.36;102840.19;105947;1290;59216;-70
2023/01/25 06:13:37;;;;;;;;;;;;;;;0.67;86.33;102839.52;106009;1290;74550;-70
2023/01/25 06:16:23;;;;;;;;;;;;;;;0.65;86.28;102841.25;105981;1290;67427;-70
2023/01/25 06:19:11;;;;;;;;;;;;;;;0.63;86.23;102839.63;105947;1291;70387;-70
2023/01/25 06:21:57;;;;;;;;;;;;;;;0.62;86.26;102841.59;105971;1294;59367;-70
2023/01/25 06:24:43;;;;;;;;;;;;;;;0.61;86.29;102843.38;105957;1291;59921;-70
2023/01/25 06:27:29;;;;;;;;;;;;;;;0.61;86.24;102841.16;105964;1290;73097;-70
2023/01/25 06:30:15;;;;;;;;;;;;;;;0.61;86.28;102841.34;105948;1290;67323;-70
2023/01/25 06:33:01;;;;;;;;;;;;;;;0.61;86.22;102841.19;105963;1291;72440;-69
2023/01/25 06:35:47;;;;;;;;;;;;;;;0.62;86.23;102840.02;104857;1291;61711;-69
2023/01/25 06:38:33;;;;;;;;;;;;;;;0.62;86.31;102835.80;104644;1291;61742;-69
2023/01/25 06:41:19;;;;;;;;;;;;;;;0.64;86.31;102835.74;104665;1290;73281;-69
2023/01/25 06:44:05;;;;;;;;;;;;;;;0.63;86.30;102834.52;104647;1291;68166;-69
2023/01/25 06:46:51;;;;;;;;;;;;;;;0.61;86.33;102834.21;104306;1291;70979;-69
2023/01/25 06:49:38;;;;;;;;;;;;;;;0.59;86.29;102832.73;104529;1291;61452;-69
2023/01/25 06:52:24;;;;;;;;;;;;;;;0.58;86.39;102830.64;104499;1293;61355;-68
2023/01/25 06:55:12;;;;;;;;;;;;;;;0.57;86.40;102834.15;104541;1291;74101;-69
2023/01/25 06:57:59;;;;;;;;;;;;;;;0.57;86.38;102833.99;104526;1291;67313;-69
2023/01/25 07:00:45;;;;;;;;;;;;;;;0.57;86.36;102838.03;104567;1291;71109;-69
2023/01/25 07:03:32;;;;;;;;;;;;;;;0.56;86.36;102834.60;104535;1293;61069;-69
2023/01/25 07:06:18;;;;;;;;;;;;;;;0.56;86.34;102827.81;104555;1291;59239;-69
2023/01/25 07:09:05;;;;;;;;;;;;;;;0.56;86.32;102826.44;104578;1291;74969;-69
2023/01/25 07:11:51;;;;;;;;;;;;;;;0.54;86.33;102828.55;104596;1293;67254;-69
2023/01/25 07:14:37;;;;;;;;;;;;;;;0.54;86.28;102830.23;104560;1290;75479;-69
2023/01/25 07:17:24;;;;;;;;;;;;;;;0.53;86.35;102825.44;104498;1291;61308;-69
2023/01/25 07:20:10;;;;;;;;;;;;;;;0.54;86.33;102818.17;104604;1291;61499;-69
2023/01/25 07:22:57;;;;;;;;;;;;;;;0.53;86.29;102820.65;104452;1291;73229;-70
2023/01/25 07:25:48;;;;;;;;;;;;;;;0.51;86.33;102821.96;104403;1291;67240;-68
2023/01/25 07:28:35;;;;;;;;;;;;;;;0.49;86.33;102820.64;104843;1291;72719;-70
2023/01/25 07:31:21;;;;;;;;;;;;;;;0.48;86.27;102819.91;104913;1291;59531;-70
2023/01/25 07:34:08;;;;;;;;;;;;;;;0.47;86.25;102813.88;104843;1291;61240;-70
2023/01/25 07:36:55;;;;;;;;;;;;;;;0.46;86.24;102820.60;104887;1293;73167;-70
2023/01/25 07:39:46;;;;;;;;;;;;;;;0.46;86.26;102818.42;104926;1291;67457;-70
2023/01/25 07:42:33;;;;;;;;;;;;;;;0.48;86.24;102815.30;104857;1290;74263;-70
2023/01/25 07:45:19;;;;;;;;;;;;;;;0.50;86.24;102803.86;104876;1292;61259;-70
2023/01/25 07:48:08;;;;;;;;;;;;;;;0.51;86.26;102797.98;104935;1290;61304;-70
2023/01/25 07:51:21;;;;;;;;;;;;;;;0.52;86.29;102793.63;104910;1291;77394;-70
2023/01/25 07:54:10;;;;;;;;;;;;;;;0.53;86.30;102792.67;104861;1291;67474;-70
2023/01/25 07:56:57;;;;;;;;;;;;;;;0.55;86.29;102788.02;104959;1290;71542;-70
2023/01/25 07:59:43;;;;;;;;;;;;;;;0.56;86.25;102786.27;104914;1291;61128;-70
2023/01/25 08:02:29;;;;;;;;;;;;;;;0.57;86.21;102784.27;104858;1291;61366;-70
2023/01/25 08:05:15;;;;;;;;;;;;;;;0.59;86.27;102785.21;104923;1291;75215;-70
2023/01/25 08:08:01;;;;;;;;;;;;;;;0.58;86.25;102781.10;104953;1291;67245;-70
2023/01/25 08:10:47;;;;;;;;;;;;;;;0.58;86.32;102770.23;104898;1293;71711;-70
2023/01/25 08:13:33;;;;;;;;;;;;;;;0.59;86.26;102760.95;104914;1296;60078;-70
2023/01/25 08:16:21;;;;;;;;;;;;;;;0.61;86.25;102768.20;104778;1291;59520;-70
2023/01/25 08:19:09;;;;;;;;;;;;;;;0.63;86.30;102765.95;104901;1291;77399;-70
2023/01/25 08:21:55;;;;;;;;;;;;;;;0.64;86.27;102760.75;104901;1291;68476;-70
2023/01/25 08:24:41;;;;;;;;;;;;;;;0.64;86.17;102757.86;104924;1291;71346;-69
2023/01/25 08:27:27;;;;;;;;;;;;;;;0.65;86.24;102762.14;104844;1291;61158;-69
2023/01/25 08:30:13;;;;;;;;;;;;;;;0.63;86.19;102761.58;104760;1293;61196;-70
2023/01/25 08:33:00;;;;;;;;;;;;;;;0.63;86.20;102757.48;104630;1291;73194;-69
2023/01/25 08:35:55;;;;;;;;;;;;;;;0.61;86.13;102758.20;104781;1291;68904;-69
2023/01/25 08:38:42;;;;;;;;;;;;;;;0.61;86.15;102751.38;104843;1291;72868;-69
2023/01/25 08:41:29;;;;;;;;;;;;;;;0.61;86.22;102745.12;104569;1296;59527;-68
2023/01/25 08:44:15;;;;;;;;;;;;;;;0.60;86.14;102743.86;104546;1291;61349;-68
2023/01/25 08:47:01;;;;;;;;;;;;;;;0.57;86.12;102742.33;104432;1291;74892;-69
2023/01/25 08:49:47;;;;;;;;;;;;;;;0.57;86.23;102736.07;104496;1295;67464;-69
2023/01/25 08:52:33;;;;;;;;;;;;;;;0.60;86.23;102731.00;104455;1292;70235;-72
2023/01/25 08:55:20;;;;;;;;;;;;;;;0.62;86.17;102732.27;104821;1293;61278;-71
2023/01/25 08:58:09;;;;;;;;;;;;;;;0.61;86.22;102737.16;104945;1291;59654;-68
2023/01/25 09:01:00;;;;;;;;;;;;;;;0.60;86.17;102740.16;104904;1290;74080;-73
2023/01/25 09:03:47;;;;;;;;;;;;;;;0.61;86.18;102736.48;104484;1291;68345;-70
2023/01/25 09:06:33;;;;;;;;;;;;;;;0.63;86.22;102733.71;104899;1291;72508;-76
2023/01/25 09:09:21;;;;;;;;;;;;;;;0.65;86.20;102730.77;104939;1291;61282;-68
2023/01/25 09:12:08;;;;;;;;;;;;;;;0.68;86.20;102728.02;104491;1295;61096;-68
2023/01/25 09:14:54;;;;;;;;;;;;;;;0.70;86.17;102723.70;105792;1291;73425;-68
2023/01/25 09:17:39;;;;;;;;;;;;;;;0.72;86.12;102720.48;105724;1296;68428;-69
2023/01/25 09:20:25;;;;;;;;;;;;;;;0.74;86.21;102721.09;105812;1291;72317;-69
2023/01/25 09:23:11;;;;;;;;;;;;;;;0.76;86.18;102718.52;105846;1292;59387;-68
2023/01/25 09:25:59;;;;;;;;;;;;;;;0.79;86.19;102715.63;105862;1291;59809;-68
2023/01/25 09:28:49;;;;;;;;;;;;;;;0.83;86.19;102714.49;105857;1291;73451;-68
2023/01/25 09:31:38;;;;;;;;;;;;;;;0.87;86.18;102713.55;105887;1291;71014;-68
2023/01/25 09:34:24;;;;;;;;;;;;;;;0.92;86.34;102713.16;105723;1291;71558;-68
2023/01/25 09:37:10;;;;;;;;;;;;;;;0.95;86.17;102709.06;105937;1292;59363;-68
2023/01/25 09:39:56;;;;;;;;;;;;;;;0.95;86.11;102704.65;105966;1290;59242;-69
2023/01/25 09:43:08;;;;;;;;;;;;;;;0.96;86.12;102699.26;105941;1291;73644;-72
2023/01/25 09:45:55;;;;;;;;;;;;;;;0.97;86.08;102692.73;105916;1293;67440;-73
2023/01/25 09:48:47;;;;;;;;;;;;;;;0.95;86.02;102696.34;105913;1291;72559;-72
2023/01/25 09:51:52;;;;;;;;;;;;;;;0.97;86.10;102695.77;105924;1293;58970;-80
2023/01/25 09:54:39;;;;;;;;;;;;;;;1.00;86.27;102698.17;105974;1291;59366;-80
2023/01/25 09:57:36;;;;;;;;;;;;;;;1.03;86.15;102692.36;105947;1291;76097;-80
2023/01/25 10:00:22;;;;;;;;;;;;;;;1.05;86.18;102693.80;105875;1292;68440;-80
2023/01/25 10:03:21;;;;;;;;;;;;;;;1.05;86.13;102691.45;105886;1290;72424;-80
2023/01/25 10:06:11;;;;;;;;;;;;;;;1.05;86.13;102690.42;105886;1289;59093;-80
2023/01/25 10:09:33;;;;;;;;;;;;;;;1.06;86.17;102692.48;105959;1291;59339;-80
2023/01/25 10:12:20;;;;;;;;;;;;;;;1.08;86.24;102690.06;105221;1299;73962;-80
2023/01/25 10:15:20;;;;;;;;;;;;;;;1.08;86.16;102686.00;105123;1302;67217;-81
2023/01/25 10:18:24;;;;;;;;;;;;;;;1.09;86.13;102675.17;105153;1299;73672;-80
2023/01/25 10:21:19;;;;;;;;;;;;;;;1.08;86.06;102668.69;105180;1300;59222;-80
2023/01/25 10:24:24;;;;;;;;;;;;;;;1.10;86.17;102663.04;105178;1302;59225;-80
2023/01/25 10:27:13;;;;;;;;;;;;;;;1.11;86.15;102658.79;105217;1302;75032;-80
2023/01/25 10:30:01;;;;;;;;;;;;;;;1.13;86.16;102659.08;105178;1299;67391;-80
2023/01/25 10:32:48;;;;;;;;;;;;;;;1.13;86.16;102651.63;105132;1300;71674;-80
2023/01/25 10:35:37;;;;;;;;;;;;;;;1.14;86.14;102652.52;105180;1300;59506;-80
2023/01/25 10:38:31;;;;;;;;;;;;;;;1.13;86.15;102649.39;105207;1297;59467;-80
2023/01/25 10:41:20;;;;;;;;;;;;;;;1.12;86.13;102651.41;105264;1299;74745;-80
2023/01/25 10:44:21;;;;;;;;;;;;;;;1.14;86.18;102648.81;105172;1300;69761;-79
2023/01/25 10:47:27;;;;;;;;;;;;;;;1.15;86.12;102644.25;105744;1294;73154;-80
2023/01/25 10:50:32;;;;;;;;;;;;;;;1.15;86.16;102637.80;105847;1294;59424;-80
2023/01/25 10:53:18;;;;;;;;;;;;;;;1.17;86.18;102635.36;105961;1293;59077;-80
2023/01/25 10:56:09;;;;;;;;;;;;;;;1.20;86.19;102633.31;105936;1295;73798;-80
2023/01/25 10:59:07;;;;;;;;;;;;;;;1.22;86.22;102623.09;105941;1293;67939;-80
2023/01/25 11:01:53;;;;;;;;;;;;;;;1.24;86.24;102614.88;105855;1296;72443;-80
2023/01/25 11:04:40;;;;;;;;;;;;;;;1.25;86.27;102613.72;105906;1292;59402;-79
2023/01/25 11:07:27;;;;;;;;;;;;;;;1.25;86.22;102612.56;105954;1291;59898;-79
2023/01/25 11:10:25;;;;;;;;;;;;;;;1.27;86.25;102606.17;105984;1289;73385;-80
2023/01/25 11:13:14;;;;;;;;;;;;;;;1.27;86.10;102598.21;105962;1293;67242;-80
2023/01/25 11:16:00;;;;;;;;;;;;;;;1.28;86.24;102595.55;105942;1289;71324;-80
2023/01/25 11:18:51;;;;;;;;;;;;;;;1.29;86.20;102592.02;105869;1292;59507;-80
2023/01/25 11:21:50;;;;;;;;;;;;;;;1.28;86.19;102583.13;105924;1290;59387;-80
2023/01/25 11:24:36;;;;;;;;;;;;;;;1.27;86.18;102573.73;105851;1291;74424;-80
2023/01/25 11:27:26;;;;;;;;;;;;;;;1.27;86.21;102575.96;105931;1293;67224;-80
2023/01/25 11:30:17;;;;;;;;;;;;;;;1.25;86.08;102575.52;105903;1289;70309;-79
2023/01/25 11:33:08;;;;;;;;;;;;;;;1.24;86.15;102567.65;105869;1290;59417;-79
2023/01/25 11:36:06;;;;;;;;;;;;;;;1.25;86.18;102559.03;105924;1292;59226;-79
2023/01/25 11:39:02;;;;;;;;;;;;;;;1.25;86.14;102555.14;105990;1289;73330;-79
2023/01/25 11:42:08;;;;;;;;;;;;;;;1.26;86.19;102552.30;105933;1292;67341;-79
2023/01/25 11:45:12;;;;;;;;;;;;;;;1.28;86.19;102544.59;105451;1295;72448;-79
2023/01/25 11:48:21;;;;;;;;;;;;;;;1.30;86.22;102536.90;105492;1294;59058;-79
2023/01/25 11:51:25;;;;;;;;;;;;;;;1.32;86.21;102526.62;105029;1306;59451;-79
2023/01/25 11:54:14;;;;;;;;;;;;;;;1.36;86.22;102528.00;104995;1300;75495;-79
2023/01/25 11:57:07;;;;;;;;;;;;;;;1.39;86.23;102528.98;105015;1303;67205;-79
2023/01/25 12:00:13;;;;;;;;;;;;;;;1.39;86.20;102520.67;104964;1302;71356;-79
2023/01/25 12:02:59;;;;;;;;;;;;;;;1.42;86.22;102511.64;104988;1305;59803;-79
2023/01/25 12:05:52;;;;;;;;;;;;;;;1.44;86.16;102509.88;105007;1303;59510;-79
2023/01/25 12:08:38;;;;;;;;;;;;;;;1.43;86.20;102507.98;105066;1300;74623;-79
2023/01/25 12:11:29;;;;;;;;;;;;;;;1.43;86.15;102502.68;105010;1300;68967;-79
2023/01/25 12:14:34;;;;;;;;;;;;;;;1.44;86.21;102491.35;104996;1301;70353;-79
2023/01/25 12:17:36;;;;;;;;;;;;;;;1.44;86.20;102483.23;104957;1305;59118;-79
2023/01/25 12:20:40;;;;;;;;;;;;;;;1.44;86.12;102481.86;104975;1302;58807;-79
2023/01/25 12:23:42;;;;;;;;;;;;;;;1.46;86.25;102474.46;105345;1297;74838;-80
2023/01/25 12:26:36;;;;;;;;;;;;;;;1.49;86.30;102470.73;105331;1297;67430;-85
2023/01/25 12:29:29;;;;;;;;;;;;;;;1.49;86.24;102465.64;105441;1294;72129;-76
2023/01/25 12:32:34;;;;;;;;;;;;;;;1.51;86.26;102456.89;104918;1291;61365;-77
2023/01/25 12:35:53;;;;;;;;;;;;;;;1.51;86.21;102447.08;104930;1291;61648;-77
2023/01/25 12:39:02;;;;;;;;;;;;;;;1.51;86.25;102442.79;104379;1297;74562;-77
2023/01/25 12:42:11;;;;;;;;;;;;;;;1.49;86.21;102433.54;103974;1308;67279;-79
2023/01/25 12:44:57;;;;;;;;;;;;;;;1.50;86.24;102425.57;103854;1303;71452;-79
2023/01/25 12:47:46;;;;;;;;;;;;;;;1.51;86.24;102417.27;103906;1303;60170;-78
2023/01/25 12:50:40;;;;;;;;;;;;;;;1.50;86.25;102407.73;103983;1303;60224;-82
2023/01/25 12:53:32;;;;;;;;;;;;;;;1.50;86.26;102406.86;104360;1303;75072;-82
2023/01/25 12:56:24;;;;;;;;;;;;;;;1.48;86.28;102411.20;104375;1302;70040;-82
2023/01/25 12:59:15;;;;;;;;;;;;;;;1.47;86.23;102409.80;104392;1305;76266;-82
2023/01/25 13:02:04;;;;;;;;;;;;;;;1.46;86.22;102400.40;104306;1302;60746;-82
2023/01/25 13:05:02;;;;;;;;;;;;;;;1.43;86.17;102392.12;104271;1305;64113;-82
2023/01/25 13:07:53;;;;;;;;;;;;;;;1.42;86.19;102391.35;104287;1302;73219;-82
2023/01/25 13:10:42;;;;;;;;;;;;;;;1.44;86.20;102391.61;104379;1303;73028;-82
2023/01/25 13:13:28;;;;;;;;;;;;;;;1.44;86.21;102385.20;104363;1308;73187;-82
2023/01/25 13:16:41;;;;;;;;;;;;;;;1.44;86.08;102377.87;104755;1296;59294;-82
2023/01/25 13:19:28;;;;;;;;;;;;;;;1.44;86.20;102375.49;105787;1290;60083;-82
2023/01/25 13:22:34;;;;;;;;;;;;;;;1.45;86.24;102375.18;105619;1288;74348;-82
2023/01/25 13:25:20;;;;;;;;;;;;;;;1.44;86.22;102372.41;105463;1289;67393;-82
2023/01/25 13:28:25;;;;;;;;;;;;;;;1.44;86.17;102366.64;105351;1289;72651;-82
2023/01/25 13:31:29;;;;;;;;;;;;;;;1.43;86.18;102361.02;105431;1293;61045;-82
2023/01/25 13:34:54;;;;;;;;;;;;;;;1.40;86.13;102358.65;105464;1291;59566;-82
2023/01/25 13:37:41;;;;;;;;;;;;;;;1.40;86.22;102348.09;104728;1297;72481;-82
2023/01/25 13:40:32;;;;;;;;;;;;;;;1.40;86.23;102347.24;104694;1303;69156;-82
2023/01/25 13:43:19;;;;;;;;;;;;;;;1.38;86.13;102344.10;104776;1297;73289;-82
2023/01/25 13:46:07;;;;;;;;;;;;;;;1.38;86.15;102343.95;104796;1299;62012;-82
2023/01/25 13:48:58;;;;;;;;;;;;;;;1.37;86.17;102340.98;104728;1301;60433;-82
2023/01/25 13:51:44;;;;;;;;;;;;;;;1.36;86.20;102344.86;104874;1297;75219;-82
2023/01/25 13:54:30;;;;;;;;;;;;;;;1.37;86.13;102341.84;104759;1297;68334;-82
2023/01/25 13:57:23;;;;;;;;;;;;;;;1.35;86.11;102338.54;104822;1297;71567;-82
2023/01/25 14:00:15;;;;;;;;;;;;;;;1.34;86.12;102336.77;104733;1297;59137;-82
2023/01/25 14:03:04;;;;;;;;;;;;;;;1.33;86.22;102331.98;104813;1297;61055;-83
2023/01/25 14:05:51;;;;;;;;;;;;;;;1.33;86.13;102330.79;104687;1302;73311;-83
2023/01/25 14:08:37;;;;;;;;;;;;;;;1.33;86.16;102331.30;105015;1291;67342;-83
2023/01/25 14:11:33;;;;;;;;;;;;;;;1.34;86.18;102321.47;105170;1291;71275;-83
2023/01/25 14:14:23;;;;;;;;;;;;;;;1.34;86.21;102311.97;105433;1291;59733;-83
2023/01/25 14:17:17;;;;;;;;;;;;;;;1.35;86.18;102305.04;105413;1292;60374;-83
2023/01/25 14:20:16;;;;;;;;;;;;;;;1.36;86.22;102302.90;105351;1291;74819;-83
2023/01/25 14:23:04;;;;;;;;;;;;;;;1.36;86.15;102297.42;105382;1290;67538;-83
2023/01/25 14:25:50;;;;;;;;;;;;;;;1.35;86.19;102294.52;105408;1291;72199;-83
2023/01/25 14:28:36;;;;;;;;;;;;;;;1.36;86.16;102286.92;105338;1291;61184;-83
2023/01/25 14:31:24;;;;;;;;;;;;;;;1.37;86.21;102287.46;105296;1291;59400;-83